createdAt,value
2023-08-12T00:02:18.545Z,18.60
2023-08-12T00:04:47.996Z,18.60
2023-08-12T00:07:15.090Z,18.70
2023-08-12T00:09:42.183Z,18.70
2023-08-12T00:12:09.414Z,18.70
2023-08-12T00:14:36.510Z,18.60
2023-08-12T00:17:03.933Z,18.60
2023-08-12T00:19:31.117Z,18.60
2023-08-12T00:21:58.340Z,18.60
2023-08-12T00:24:25.523Z,18.60
2023-08-12T00:26:52.598Z,18.70
2023-08-12T00:29:19.705Z,18.60
2023-08-12T00:31:46.816Z,18.60
2023-08-12T00:34:14.091Z,18.50
2023-08-12T00:36:41.386Z,18.50
2023-08-12T00:39:08.735Z,18.50
2023-08-12T00:41:35.946Z,18.40
2023-08-12T00:44:03.841Z,18.40
2023-08-12T00:46:31.437Z,18.40
2023-08-12T00:48:58.767Z,18.30
2023-08-12T00:51:26.586Z,18.20
2023-08-12T00:53:55.124Z,18.20
2023-08-12T00:56:22.959Z,18.10
2023-08-12T00:58:50.455Z,18.00
2023-08-12T01:01:19.356Z,18.00
2023-08-12T01:03:46.978Z,18.00
2023-08-12T01:06:14.599Z,17.90
2023-08-12T01:08:41.924Z,17.90
2023-08-12T01:11:20.834Z,18.00
2023-08-12T01:14:22.322Z,18.00
2023-08-12T01:16:52.676Z,18.10
2023-08-12T01:19:48.308Z,18.10
2023-08-12T01:22:17.745Z,18.10
2023-08-12T01:24:45.975Z,18.00
2023-08-12T01:27:14.803Z,18.00
2023-08-12T01:29:49.378Z,18.00
2023-08-12T01:32:31.703Z,17.90
2023-08-12T01:35:08.871Z,17.80
2023-08-12T01:37:37.383Z,17.80
2023-08-12T01:40:05.761Z,17.80
2023-08-12T01:42:38.061Z,17.80
2023-08-12T01:45:05.788Z,17.80
2023-08-12T01:47:33.815Z,17.80
2023-08-12T01:50:01.161Z,17.80
2023-08-12T01:52:28.475Z,17.80
2023-08-12T01:54:55.917Z,17.70
2023-08-12T01:57:23.100Z,17.70
2023-08-12T01:59:50.919Z,17.60
2023-08-12T02:02:18.299Z,17.60
2023-08-12T02:04:46.096Z,17.50
2023-08-12T02:07:13.529Z,17.50
2023-08-12T02:09:41.079Z,17.50
2023-08-12T02:12:08.551Z,17.50
2023-08-12T02:14:37.679Z,17.60
2023-08-12T02:17:08.489Z,17.70
2023-08-12T02:19:35.931Z,17.70
2023-08-12T02:22:04.976Z,17.70
2023-08-12T02:24:32.275Z,17.70
2023-08-12T02:26:59.475Z,17.60
2023-08-12T02:29:26.657Z,17.60
2023-08-12T02:31:54.027Z,17.50
2023-08-12T02:34:21.711Z,17.50
2023-08-12T02:36:48.954Z,17.40
2023-08-12T02:39:16.150Z,17.40
2023-08-12T02:41:43.413Z,17.40
2023-08-12T02:44:10.566Z,17.50
2023-08-12T02:46:37.865Z,17.50
2023-08-12T02:49:05.219Z,17.50
2023-08-12T02:51:32.423Z,17.50
2023-08-12T02:54:01.475Z,17.50
2023-08-12T02:56:28.650Z,17.40
2023-08-12T02:58:55.785Z,17.40
2023-08-12T03:01:23.618Z,17.40
2023-08-12T03:03:50.764Z,17.40
2023-08-12T03:06:18.979Z,17.40
2023-08-12T03:08:46.171Z,17.40
2023-08-12T03:11:13.375Z,17.40
2023-08-12T03:13:41.367Z,17.40
2023-08-12T03:16:14.756Z,17.30
2023-08-12T03:18:42.642Z,17.30
2023-08-12T03:21:10.667Z,17.30
2023-08-12T03:23:39.246Z,17.30
2023-08-12T03:26:06.529Z,17.30
2023-08-12T03:28:33.696Z,17.30
2023-08-12T03:31:00.956Z,17.20
2023-08-12T03:33:28.260Z,17.20
2023-08-12T03:35:55.418Z,17.20
2023-08-12T03:38:22.566Z,17.10
2023-08-12T03:40:50.956Z,17.10
2023-08-12T03:43:21.741Z,17.10
2023-08-12T03:45:48.867Z,17.10
2023-08-12T03:48:16.053Z,17.20
2023-08-12T03:50:43.671Z,17.10
2023-08-12T03:53:10.899Z,17.10
2023-08-12T03:55:38.073Z,17.00
2023-08-12T03:58:05.471Z,17.00
2023-08-12T04:00:32.909Z,16.90
2023-08-12T04:03:00.328Z,16.90
2023-08-12T04:05:27.617Z,17.00
2023-08-12T04:07:54.819Z,17.00
2023-08-12T04:10:21.943Z,17.00
2023-08-12T04:12:49.076Z,17.00
2023-08-12T04:15:16.276Z,16.90
2023-08-12T04:17:43.556Z,16.80
2023-08-12T04:20:11.081Z,16.80
2023-08-12T04:22:38.532Z,16.90
2023-08-12T04:25:06.258Z,16.90
2023-08-12T04:27:33.525Z,16.90
2023-08-12T04:30:01.173Z,16.90
2023-08-12T04:32:28.307Z,16.90
2023-08-12T04:34:55.550Z,16.90
2023-08-12T04:37:22.791Z,16.90
2023-08-12T04:39:49.934Z,16.90
2023-08-12T04:42:17.330Z,16.90
2023-08-12T04:44:44.411Z,16.90
2023-08-12T04:47:11.845Z,16.90
2023-08-12T04:49:39.504Z,16.90
2023-08-12T04:52:07.925Z,16.90
2023-08-12T04:54:35.172Z,16.90
2023-08-12T04:57:02.320Z,17.00
2023-08-12T04:59:29.366Z,17.10
2023-08-12T05:02:17.485Z,17.10
2023-08-12T05:04:43.831Z,17.10
2023-08-12T05:07:10.976Z,17.10
2023-08-12T05:09:38.142Z,17.20
2023-08-12T05:12:05.516Z,17.20
2023-08-12T05:14:32.662Z,17.30
2023-08-12T05:16:59.902Z,17.40
2023-08-12T05:19:26.975Z,17.50
2023-08-12T05:21:54.003Z,17.60
2023-08-12T05:24:21.170Z,17.70
2023-08-12T05:26:48.377Z,17.80
2023-08-12T05:29:15.489Z,17.90
2023-08-12T05:31:42.698Z,17.90
2023-08-12T05:34:09.932Z,18.00
2023-08-12T05:36:37.642Z,18.00
2023-08-12T05:39:05.038Z,18.00
2023-08-12T05:41:32.185Z,18.00
2023-08-12T05:44:02.699Z,18.10
2023-08-12T05:46:30.076Z,18.10
2023-08-12T05:48:57.154Z,18.20
2023-08-12T05:51:24.312Z,18.20
2023-08-12T05:53:51.469Z,18.30
2023-08-12T05:56:18.603Z,18.30
2023-08-12T05:58:45.737Z,18.40
2023-08-12T06:01:12.945Z,18.40
2023-08-12T06:03:40.845Z,18.40
2023-08-12T06:06:08.186Z,18.40
2023-08-12T06:08:35.789Z,18.50
2023-08-12T06:11:02.922Z,18.50
2023-08-12T06:13:29.961Z,18.50
2023-08-12T06:15:57.359Z,18.50
2023-08-12T06:18:24.547Z,18.50
2023-08-12T06:20:51.897Z,18.60
2023-08-12T06:23:19.205Z,18.60
2023-08-12T06:25:46.387Z,18.60
2023-08-12T06:28:13.493Z,18.60
2023-08-12T06:30:40.612Z,18.60
2023-08-12T06:33:07.734Z,18.70
2023-08-12T06:35:34.946Z,18.70
2023-08-12T06:38:02.225Z,18.70
2023-08-12T06:40:29.467Z,18.80
2023-08-12T06:42:56.554Z,18.80
2023-08-12T06:45:23.711Z,18.90
2023-08-12T06:47:50.965Z,18.90
2023-08-12T06:50:18.290Z,19.00
2023-08-12T06:52:45.401Z,19.00
2023-08-12T06:55:12.578Z,19.10
2023-08-12T06:57:39.653Z,19.20
2023-08-12T07:00:07.477Z,19.30
2023-08-12T07:02:35.312Z,19.30
2023-08-12T07:05:02.843Z,19.40
2023-08-12T07:07:29.966Z,19.40
2023-08-12T07:09:57.177Z,19.50
2023-08-12T07:12:24.219Z,19.60
2023-08-12T07:14:51.398Z,19.70
2023-08-12T07:17:18.430Z,19.70
2023-08-12T07:19:45.571Z,19.90
2023-08-12T07:22:13.371Z,20.00
2023-08-12T07:24:40.880Z,20.10
2023-08-12T07:27:08.132Z,20.20
2023-08-12T07:29:35.333Z,20.30
2023-08-12T07:32:02.446Z,20.40
2023-08-12T07:34:31.487Z,20.40
2023-08-12T07:36:59.257Z,20.50
2023-08-12T07:39:26.490Z,20.60
2023-08-12T07:41:53.664Z,20.60
2023-08-12T07:44:20.853Z,20.70
2023-08-12T07:46:48.050Z,20.70
2023-08-12T07:49:15.691Z,20.80
2023-08-12T07:51:42.798Z,20.80
2023-08-12T07:54:09.870Z,20.90
2023-08-12T07:56:37.014Z,21.00
2023-08-12T07:59:04.494Z,21.00
2023-08-12T08:01:31.759Z,21.10
2023-08-12T08:03:58.952Z,21.20
2023-08-12T08:06:26.254Z,21.30
2023-08-12T08:08:53.355Z,21.30
2023-08-12T08:11:20.437Z,21.40
2023-08-12T08:13:47.623Z,21.50
2023-08-12T08:16:14.753Z,21.50
2023-08-12T08:18:41.993Z,21.60
2023-08-12T08:21:09.115Z,21.70
2023-08-12T08:23:36.295Z,21.70
2023-08-12T08:26:04.107Z,21.80
2023-08-12T08:28:31.317Z,21.90
2023-08-12T08:30:58.324Z,22.00
2023-08-12T08:33:27.269Z,22.00
2023-08-12T08:35:55.424Z,22.10
2023-08-12T08:38:22.676Z,22.20
2023-08-12T08:40:53.014Z,22.30
2023-08-12T08:43:24.214Z,22.30
2023-08-12T08:45:54.530Z,22.40
2023-08-12T08:48:21.961Z,22.50
2023-08-12T08:50:50.074Z,22.50
2023-08-12T08:53:19.347Z,22.60
2023-08-12T08:55:47.423Z,22.70
2023-08-12T08:58:15.560Z,22.70
2023-08-12T09:00:48.978Z,22.80
2023-08-12T09:03:16.552Z,22.90
2023-08-12T09:05:45.105Z,23.00
2023-08-12T09:08:14.277Z,23.00
2023-08-12T09:10:42.372Z,23.10
2023-08-12T09:13:12.787Z,23.20
2023-08-12T09:15:40.158Z,23.30
2023-08-12T09:18:07.889Z,23.40
2023-08-12T09:20:35.751Z,23.50
2023-08-12T09:23:03.962Z,23.60
2023-08-12T09:25:31.837Z,23.70
2023-08-12T09:28:01.909Z,23.80
2023-08-12T09:30:35.023Z,23.90
2023-08-12T09:33:05.435Z,24.00
2023-08-12T09:35:40.346Z,24.10
2023-08-12T09:38:09.594Z,24.20
2023-08-12T09:40:37.763Z,24.40
2023-08-12T09:43:05.613Z,24.50
2023-08-12T09:45:39.448Z,24.70
2023-08-12T09:48:09.271Z,24.90
2023-08-12T09:50:37.816Z,25.10
2023-08-12T09:53:05.408Z,25.40
2023-08-12T09:55:36.795Z,25.70
2023-08-12T09:58:09.208Z,25.90
2023-08-12T10:00:37.218Z,26.20
2023-08-12T10:03:05.420Z,26.50
2023-08-12T10:05:35.518Z,26.70
2023-08-12T10:08:05.225Z,26.90
2023-08-12T10:10:35.998Z,27.10
2023-08-12T10:13:03.778Z,27.30
2023-08-12T10:15:31.420Z,27.50
2023-08-12T10:17:58.508Z,27.60
2023-08-12T10:20:26.709Z,27.80
2023-08-12T10:22:54.890Z,27.90
2023-08-12T10:25:25.411Z,28.10
2023-08-12T10:27:52.524Z,28.30
2023-08-12T10:30:22.000Z,28.40
2023-08-12T10:32:49.383Z,28.50
2023-08-12T10:35:16.757Z,28.60
2023-08-12T10:37:49.423Z,28.80
2023-08-12T10:40:24.465Z,29.00
2023-08-12T10:42:52.191Z,29.20
2023-08-12T10:45:20.269Z,29.30
2023-08-12T10:48:29.211Z,29.40
2023-08-12T10:50:58.730Z,29.50
2023-08-12T10:53:31.220Z,29.60
2023-08-12T10:55:59.748Z,29.80
2023-08-12T10:58:47.678Z,30.00
2023-08-12T11:01:21.544Z,30.20
2023-08-12T11:03:50.122Z,30.30
2023-08-12T11:06:17.459Z,30.40
2023-08-12T11:09:02.982Z,30.40
2023-08-12T11:11:30.763Z,30.50
2023-08-12T11:13:58.701Z,30.50
2023-08-12T11:16:39.294Z,30.50
2023-08-12T11:19:07.137Z,30.50
2023-08-12T11:21:37.719Z,30.60
2023-08-12T11:24:05.804Z,30.80
2023-08-12T11:26:33.158Z,30.80
2023-08-12T11:29:00.255Z,30.80
2023-08-12T11:31:28.607Z,30.90
2023-08-12T11:33:55.921Z,31.10
2023-08-12T11:36:23.065Z,31.20
2023-08-12T11:38:50.429Z,31.40
2023-08-12T11:41:19.809Z,31.50
2023-08-12T11:43:46.888Z,31.60
2023-08-12T11:46:19.343Z,31.70
2023-08-12T11:48:46.499Z,31.80
2023-08-12T11:51:15.135Z,31.90
2023-08-12T11:53:42.334Z,32.00
2023-08-12T11:56:09.751Z,32.00
2023-08-12T11:58:51.367Z,32.00
2023-08-12T12:01:20.046Z,32.00
2023-08-12T12:03:56.397Z,32.10
2023-08-12T12:06:31.240Z,32.20
2023-08-12T12:09:01.610Z,32.20
2023-08-12T12:11:28.854Z,32.30
2023-08-12T12:13:56.125Z,32.30
2023-08-12T12:16:23.396Z,32.40
2023-08-12T12:18:50.462Z,32.50
2023-08-12T12:21:23.280Z,32.60
2023-08-12T12:23:55.583Z,32.60
2023-08-12T12:26:24.272Z,32.60
2023-08-12T12:28:51.404Z,32.60
2023-08-12T12:31:18.588Z,32.50
2023-08-12T12:33:45.732Z,32.40
2023-08-12T12:36:12.936Z,32.30
2023-08-12T12:38:40.119Z,32.20
2023-08-12T12:41:07.196Z,32.30
2023-08-12T12:43:34.452Z,32.30
2023-08-12T12:46:01.569Z,32.30
2023-08-12T12:48:28.736Z,32.40
2023-08-12T12:50:56.047Z,32.40
2023-08-12T12:53:23.863Z,32.40
2023-08-12T12:55:50.907Z,32.40
2023-08-12T12:58:18.525Z,32.30
2023-08-12T13:00:45.734Z,32.30
2023-08-12T13:03:12.881Z,32.30
2023-08-12T13:05:41.295Z,32.30
2023-08-12T13:08:08.434Z,32.30
2023-08-12T13:10:35.545Z,32.30
2023-08-12T13:13:02.684Z,32.30
2023-08-12T13:15:30.040Z,32.20
2023-08-12T13:17:57.214Z,32.30
2023-08-12T13:20:24.657Z,32.30
2023-08-12T13:22:51.761Z,32.40
2023-08-12T13:25:19.708Z,32.50
2023-08-12T13:27:46.767Z,32.50
2023-08-12T13:30:13.985Z,32.50
2023-08-12T13:32:41.174Z,32.60
2023-08-12T13:35:12.588Z,32.60
2023-08-12T13:37:39.707Z,32.70
2023-08-12T13:40:07.631Z,32.80
2023-08-12T13:42:34.751Z,32.90
2023-08-12T13:45:01.917Z,32.90
2023-08-12T13:47:29.052Z,33.00
2023-08-12T13:49:56.178Z,33.10
2023-08-12T13:52:23.427Z,33.10
2023-08-12T13:54:50.582Z,33.20
2023-08-12T13:57:17.734Z,33.10
2023-08-12T13:59:45.314Z,33.00
2023-08-12T14:02:12.936Z,33.00
2023-08-12T14:04:40.404Z,33.00
2023-08-12T14:07:07.425Z,33.00
2023-08-12T14:09:35.469Z,33.00
2023-08-12T14:12:02.670Z,33.10
2023-08-12T14:14:31.798Z,33.00
2023-08-12T14:16:58.896Z,32.90
2023-08-12T14:19:26.058Z,32.90
2023-08-12T14:21:53.122Z,32.70
2023-08-12T14:24:20.232Z,32.60
2023-08-12T14:26:47.508Z,32.60
2023-08-12T14:29:14.967Z,32.60
2023-08-12T14:31:42.080Z,32.50
2023-08-12T14:34:09.511Z,32.40
2023-08-12T14:36:37.532Z,32.40
2023-08-12T14:39:04.591Z,32.30
2023-08-12T14:41:31.920Z,32.20
2023-08-12T14:44:00.319Z,32.10
2023-08-12T14:46:27.722Z,32.00
2023-08-12T14:48:55.353Z,31.90
2023-08-12T14:51:22.477Z,31.90
2023-08-12T14:53:49.613Z,31.80
2023-08-12T14:56:16.818Z,31.70
2023-08-12T14:58:44.235Z,31.50
2023-08-12T15:01:11.422Z,31.50
2023-08-12T15:03:38.775Z,31.30
2023-08-12T15:06:06.685Z,31.20
2023-08-12T15:08:34.030Z,31.20
2023-08-12T15:11:01.227Z,31.10
2023-08-12T15:13:28.398Z,31.00
2023-08-12T15:15:56.224Z,30.90
2023-08-12T15:18:24.482Z,30.80
2023-08-12T15:20:51.759Z,30.60
2023-08-12T15:23:18.929Z,30.50
2023-08-12T15:25:46.555Z,30.50
2023-08-12T15:28:14.709Z,30.30
2023-08-12T15:30:41.831Z,30.30
2023-08-12T15:33:08.998Z,30.20
2023-08-12T15:35:36.101Z,30.10
2023-08-12T15:38:03.284Z,30.00
2023-08-12T15:40:30.555Z,29.90
2023-08-12T15:42:57.842Z,29.80
2023-08-12T15:45:25.070Z,29.70
2023-08-12T15:47:56.869Z,29.70
2023-08-12T15:50:24.027Z,29.70
2023-08-12T15:52:51.146Z,29.60
2023-08-12T15:55:18.290Z,29.60
2023-08-12T15:57:45.387Z,29.60
2023-08-12T16:00:12.950Z,29.50
2023-08-12T16:02:40.090Z,29.50
2023-08-12T16:05:07.634Z,29.40
2023-08-12T16:07:34.955Z,29.40
2023-08-12T16:10:02.326Z,29.30
2023-08-12T16:12:29.521Z,29.20
2023-08-12T16:14:56.823Z,29.20
2023-08-12T16:17:24.004Z,29.10
2023-08-12T16:19:51.379Z,28.90
2023-08-12T16:22:18.712Z,28.80
2023-08-12T16:24:46.022Z,28.70
2023-08-12T16:27:13.367Z,28.60
2023-08-12T16:29:40.721Z,28.50
2023-08-12T16:32:08.303Z,28.40
2023-08-12T16:34:35.438Z,28.40
2023-08-12T16:39:36.868Z,28.30
2023-08-12T16:42:04.477Z,28.30
2023-08-12T16:44:31.551Z,28.20
2023-08-12T16:46:58.677Z,28.20
2023-08-12T16:49:25.782Z,28.20
2023-08-12T16:51:53.032Z,28.20
2023-08-12T16:54:20.237Z,28.20
2023-08-12T16:56:47.367Z,28.10
2023-08-12T16:59:14.519Z,28.10
2023-08-12T17:01:42.028Z,28.10
2023-08-12T17:04:12.984Z,28.10
2023-08-12T17:06:43.476Z,28.00
2023-08-12T17:09:16.894Z,28.00
2023-08-12T17:11:44.789Z,27.90
2023-08-12T17:14:12.386Z,27.90
2023-08-12T17:16:39.968Z,27.80
2023-08-12T17:19:07.585Z,27.80
2023-08-12T17:21:34.798Z,27.70
2023-08-12T17:24:02.030Z,27.70
2023-08-12T17:26:29.094Z,27.60
2023-08-12T17:28:56.207Z,27.60
2023-08-12T17:31:23.409Z,27.50
2023-08-12T17:33:50.754Z,27.40
2023-08-12T17:36:17.891Z,27.30
2023-08-12T17:38:45.186Z,27.20
2023-08-12T17:41:12.680Z,27.20
2023-08-12T17:43:42.463Z,27.10
2023-08-12T17:46:11.010Z,27.00
2023-08-12T17:48:41.833Z,26.90
2023-08-12T17:51:14.072Z,26.80
2023-08-12T17:53:42.446Z,26.70
2023-08-12T17:56:09.759Z,26.70
2023-08-12T17:58:37.982Z,26.60
2023-08-12T18:01:06.267Z,26.50
2023-08-12T18:03:33.642Z,26.40
2023-08-12T18:06:04.793Z,26.30
2023-08-12T18:08:35.375Z,26.20
2023-08-12T18:11:03.419Z,26.10
2023-08-12T18:13:30.894Z,26.00
2023-08-12T18:15:58.230Z,25.90
2023-08-12T18:18:25.490Z,25.80
2023-08-12T18:20:52.683Z,25.70
2023-08-12T18:23:19.904Z,25.70
2023-08-12T18:25:47.040Z,25.60
2023-08-12T18:28:14.566Z,25.50
2023-08-12T18:30:41.743Z,25.40
2023-08-12T18:33:09.116Z,25.40
2023-08-12T18:35:36.334Z,25.30
2023-08-12T18:38:03.438Z,25.30
2023-08-12T18:40:33.506Z,25.20
2023-08-12T18:43:01.587Z,25.20
2023-08-12T18:45:30.535Z,25.10
2023-08-12T18:47:57.807Z,25.10
2023-08-12T18:50:25.606Z,25.00
2023-08-12T18:52:53.397Z,25.00
2023-08-12T18:55:22.365Z,24.90
2023-08-12T18:57:51.024Z,24.90
2023-08-12T19:00:20.889Z,24.90
2023-08-12T19:02:48.228Z,24.90
2023-08-12T19:05:15.445Z,24.80
2023-08-12T19:07:42.516Z,24.80
2023-08-12T19:10:10.263Z,24.80
2023-08-12T19:12:37.759Z,24.70
2023-08-12T19:15:06.307Z,24.70
2023-08-12T19:17:33.753Z,24.70
2023-08-12T19:20:01.327Z,24.60
2023-08-12T19:22:28.372Z,24.60
2023-08-12T19:24:55.442Z,24.60
2023-08-12T19:27:22.542Z,24.60
2023-08-12T19:29:49.574Z,24.60
2023-08-12T19:32:16.779Z,24.60
2023-08-12T19:34:43.845Z,24.60
2023-08-12T19:37:11.202Z,24.60
2023-08-12T19:39:38.408Z,24.60
2023-08-12T19:42:05.915Z,24.50
2023-08-12T19:44:33.186Z,24.50
2023-08-12T19:47:00.374Z,24.40
2023-08-12T19:49:31.665Z,24.40
2023-08-12T19:51:58.935Z,24.40
2023-08-12T19:54:27.562Z,24.30
2023-08-12T19:56:54.832Z,24.30
2023-08-12T19:59:22.099Z,24.20
2023-08-12T20:01:49.699Z,24.20
2023-08-12T20:04:16.824Z,24.20
2023-08-12T20:06:43.994Z,24.10
2023-08-12T20:09:11.152Z,24.10
2023-08-12T20:11:38.199Z,24.10
2023-08-12T20:14:05.553Z,24.10
2023-08-12T20:16:33.076Z,24.00
2023-08-12T20:19:00.394Z,24.00
2023-08-12T20:21:28.050Z,23.90
2023-08-12T20:23:55.325Z,23.90
2023-08-12T20:26:23.566Z,23.90
2023-08-12T20:28:51.098Z,23.90
2023-08-12T20:31:21.461Z,23.90
2023-08-12T20:33:48.673Z,23.90
2023-08-12T20:36:16.254Z,23.90
2023-08-12T20:38:43.649Z,23.90
2023-08-12T20:41:10.807Z,23.90
2023-08-12T20:43:37.843Z,23.90
2023-08-12T20:46:06.391Z,23.90
2023-08-12T20:48:33.743Z,23.80
2023-08-12T20:51:01.004Z,23.80
2023-08-12T20:53:34.255Z,23.80
2023-08-12T20:56:01.485Z,23.70
2023-08-12T20:58:28.698Z,23.70
2023-08-12T21:00:55.761Z,23.70
2023-08-12T21:03:22.958Z,23.70
2023-08-12T21:05:52.176Z,23.70
2023-08-12T21:08:19.484Z,23.70
2023-08-12T21:10:53.847Z,23.60
2023-08-12T21:13:21.570Z,23.60
2023-08-12T21:15:48.710Z,23.60
2023-08-12T21:18:15.786Z,23.60
2023-08-12T21:20:42.920Z,23.50
2023-08-12T21:23:10.269Z,23.50
2023-08-12T21:25:37.392Z,23.50
2023-08-12T21:28:04.726Z,23.40
2023-08-12T21:30:32.713Z,23.40
2023-08-12T21:32:59.871Z,23.40
2023-08-12T21:35:27.007Z,23.40
2023-08-12T21:37:54.211Z,23.40
2023-08-12T21:40:21.473Z,23.30
2023-08-12T21:42:48.715Z,23.30
2023-08-12T21:45:16.118Z,23.30
2023-08-12T21:47:43.282Z,23.20
2023-08-12T21:50:10.749Z,23.20
2023-08-12T21:52:38.683Z,23.20
2023-08-12T21:55:06.520Z,23.20
2023-08-12T21:57:33.657Z,23.20
2023-08-12T22:00:00.793Z,23.10
2023-08-12T22:02:29.484Z,23.10
2023-08-12T22:04:56.669Z,23.00
2023-08-12T22:07:24.302Z,23.00
2023-08-12T22:09:52.604Z,23.00
2023-08-12T22:12:19.807Z,23.00
2023-08-12T22:14:46.955Z,23.00
2023-08-12T22:17:14.150Z,23.00
2023-08-12T22:19:41.464Z,23.00
2023-08-12T22:22:19.315Z,23.00
2023-08-12T22:24:47.874Z,22.90
2023-08-12T22:27:14.962Z,22.90
2023-08-12T22:29:44.800Z,22.90
2023-08-12T22:32:12.438Z,22.90
2023-08-12T22:34:39.793Z,22.80
2023-08-12T22:37:06.857Z,22.80
2023-08-12T22:39:34.033Z,22.80
2023-08-12T22:42:01.103Z,22.80
2023-08-12T22:44:29.306Z,22.80
2023-08-12T22:47:00.560Z,22.80
2023-08-12T22:49:28.996Z,22.80
2023-08-12T22:51:56.239Z,22.70
2023-08-12T22:54:23.393Z,22.70
2023-08-12T22:56:50.488Z,22.70
2023-08-12T22:59:19.155Z,22.70
2023-08-12T23:01:46.445Z,22.70
2023-08-12T23:04:13.446Z,22.60
2023-08-12T23:06:40.636Z,22.60
2023-08-12T23:09:07.752Z,22.60
2023-08-12T23:11:35.036Z,22.60
2023-08-12T23:14:02.163Z,22.70
2023-08-12T23:16:31.010Z,22.70
2023-08-12T23:18:58.114Z,22.60
2023-08-12T23:21:25.790Z,22.60
2023-08-12T23:23:52.875Z,22.60
2023-08-12T23:26:20.127Z,22.50
2023-08-12T23:28:47.250Z,22.50
2023-08-12T23:31:14.407Z,22.40
2023-08-12T23:33:41.664Z,22.40
2023-08-12T23:36:08.790Z,22.40
2023-08-12T23:38:36.038Z,22.40
2023-08-12T23:41:03.181Z,22.40
2023-08-12T23:43:30.313Z,22.40
2023-08-12T23:46:01.682Z,22.40
2023-08-12T23:48:28.946Z,22.40
2023-08-12T23:50:56.130Z,22.30
2023-08-12T23:53:23.472Z,22.30
2023-08-12T23:55:50.662Z,22.30
2023-08-12T23:58:17.856Z,22.40
